Time;durP1;ratioP1;P1;durP2;ratioP2;P2;SDS_P1;SDS_P2;PMS_P1;PMS_P2;Temp;Humidity;BMP_temperature;BMP_pressure;BME280_temperature;BME280_humidity;BME280_pressure;Samples;Min_cycle;Max_cycle;Signal;HPM_P1;HPM_P2
2023/03/27 00:02:10;;;;;;;;;;;;;;;;;;5054976;28;19950;-68
2023/03/27 00:04:36;;;;;;;;;;;;;;;;;;5055113;28;19970;-66
2023/03/27 00:07:02;;;;;;;;;;;;;;;;;;5054550;28;19955;-66
2023/03/27 00:09:30;;;;;;;;;;;;;;;;;;5055090;28;20286;-68
2023/03/27 00:11:56;;;;;;;;;;;;;;;;;;5054781;28;19955;-65
2023/03/27 00:14:23;;;;;;;;;;;;;;;;;;5054455;28;20012;-69
2023/03/27 00:16:49;;;;;;;;;;;;;;;;;;5052937;28;19959;-66
2023/03/27 00:19:15;;;;;;;;;;;;;;;;;;5054382;28;19952;-68
2023/03/27 00:21:43;;;;;;;;;;;;;;;;;;5054287;28;19955;-67
2023/03/27 00:24:09;;;;;;;;;;;;;;;;;;5054462;28;20009;-69
2023/03/27 00:26:37;;;;;;;;;;;;;;;;;;5054226;28;20322;-69
2023/03/27 00:29:03;;;;;;;;;;;;;;;;;;5054873;28;20004;-66
2023/03/27 00:31:29;;;;;;;;;;;;;;;;;;5054125;28;19994;-68
2023/03/27 00:33:56;;;;;;;;;;;;;;;;;;5054661;28;19959;-69
2023/03/27 00:36:22;;;;;;;;;;;;;;;;;;5053153;28;19951;-65
2023/03/27 00:38:51;;;;;;;;;;;;;;;;;;5054019;28;19953;-68
2023/03/27 00:41:17;;;;;;;;;;;;;;;;;;5052360;28;19997;-64
2023/03/27 00:43:43;;;;;;;;;;;;;;;;;;5054160;28;19971;-67
2023/03/27 00:46:09;;;;;;;;;;;;;;;;;;5053894;28;19948;-66
2023/03/27 00:48:35;;;;;;;;;;;;;;;;;;5054154;28;20010;-65
2023/03/27 00:51:01;;;;;;;;;;;;;;;;;;5053859;28;20010;-65
2023/03/27 00:53:27;;;;;;;;;;;;;;;;;;5054055;28;19948;-66
2023/03/27 00:55:53;;;;;;;;;;;;;;;;;;5054049;28;20042;-66
2023/03/27 00:58:19;;;;;;;;;;;;;;;;;;5053664;28;19948;-66
2023/03/27 01:00:45;;;;;;;;;;;;;;;;;;5053716;28;19949;-67
2023/03/27 01:03:11;;;;;;;;;;;;;;;;;;5053652;28;19966;-66
2023/03/27 01:05:37;;;;;;;;;;;;;;;;;;5053958;28;19995;-68
2023/03/27 01:08:03;;;;;;;;;;;;;;;;;;5053627;28;20413;-66
2023/03/27 01:10:29;;;;;;;;;;;;;;;;;;5053644;28;19954;-66
2023/03/27 01:12:55;;;;;;;;;;;;;;;;;;5053862;28;20313;-68
2023/03/27 01:15:21;;;;;;;;;;;;;;;;;;5053809;28;19963;-68
2023/03/27 01:17:46;;;;;;;;;;;;;;;;;;5053595;28;20024;-65
2023/03/27 01:20:13;;;;;;;;;;;;;;;;;;5053814;28;19952;-69
2023/03/27 01:22:38;;;;;;;;;;;;;;;;;;5053686;28;19977;-64
2023/03/27 01:25:06;;;;;;;;;;;;;;;;;;5053513;28;19998;-69
2023/03/27 01:27:36;;;;;;;;;;;;;;;;;;5053422;28;19949;-65
2023/03/27 01:30:02;;;;;;;;;;;;;;;;;;5053623;28;20365;-66
2023/03/27 01:32:29;;;;;;;;;;;;;;;;;;5053446;28;19983;-65
2023/03/27 01:34:56;;;;;;;;;;;;;;;;;;5053366;28;19960;-69
2023/03/27 01:37:23;;;;;;;;;;;;;;;;;;5053383;28;19965;-64
2023/03/27 01:39:49;;;;;;;;;;;;;;;;;;5053378;28;19992;-67
2023/03/27 01:42:15;;;;;;;;;;;;;;;;;;5053654;28;19950;-66
2023/03/27 01:44:41;;;;;;;;;;;;;;;;;;5053503;28;19990;-66
2023/03/27 01:47:07;;;;;;;;;;;;;;;;;;5053299;28;20000;-66
2023/03/27 01:49:33;;;;;;;;;;;;;;;;;;5057048;28;19947;-67
2023/03/27 01:51:59;;;;;;;;;;;;;;;;;;5057753;28;19951;-66
2023/03/27 01:54:26;;;;;;;;;;;;;;;;;;5057107;28;19957;-67
2023/03/27 01:56:52;;;;;;;;;;;;;;;;;;5056994;28;20008;-65
2023/03/27 01:59:18;;;;;;;;;;;;;;;;;;5057014;28;19953;-66
2023/03/27 02:01:45;;;;;;;;;;;;;;;;;;5056962;28;19959;-68
2023/03/27 02:04:11;;;;;;;;;;;;;;;;;;5057112;28;19977;-66
2023/03/27 02:06:37;;;;;;;;;;;;;;;;;;5057715;28;20391;-67
2023/03/27 02:09:03;;;;;;;;;;;;;;;;;;5056827;28;19968;-67
2023/03/27 02:11:29;;;;;;;;;;;;;;;;;;5057070;28;19959;-68
2023/03/27 02:13:55;;;;;;;;;;;;;;;;;;5056777;28;19952;-68
2023/03/27 02:16:21;;;;;;;;;;;;;;;;;;5056718;28;20318;-69
2023/03/27 02:18:47;;;;;;;;;;;;;;;;;;5056675;28;20003;-64
2023/03/27 02:21:13;;;;;;;;;;;;;;;;;;5057178;28;20039;-67
2023/03/27 02:23:39;;;;;;;;;;;;;;;;;;5056823;28;19993;-67
2023/03/27 02:26:05;;;;;;;;;;;;;;;;;;5056520;28;19952;-65
2023/03/27 02:28:32;;;;;;;;;;;;;;;;;;5056375;28;19963;-66
2023/03/27 02:30:57;;;;;;;;;;;;;;;;;;5056682;28;19954;-66
2023/03/27 02:33:23;;;;;;;;;;;;;;;;;;5056361;28;19958;-66
2023/03/27 02:35:49;;;;;;;;;;;;;;;;;;5056626;28;20037;-66
2023/03/27 02:38:16;;;;;;;;;;;;;;;;;;5056304;28;20399;-67
2023/03/27 02:40:42;;;;;;;;;;;;;;;;;;5056119;28;20345;-67
2023/03/27 02:43:08;;;;;;;;;;;;;;;;;;5056422;28;19994;-67
2023/03/27 02:45:33;;;;;;;;;;;;;;;;;;5056412;28;19952;-67
2023/03/27 02:48:00;;;;;;;;;;;;;;;;;;5056088;28;19953;-66
2023/03/27 02:50:26;;;;;;;;;;;;;;;;;;5056056;28;19950;-65
2023/03/27 02:52:52;;;;;;;;;;;;;;;;;;5055940;28;20408;-67
2023/03/27 02:55:19;;;;;;;;;;;;;;;;;;5055986;28;19996;-66
2023/03/27 02:57:45;;;;;;;;;;;;;;;;;;5055938;28;20315;-66
2023/03/27 03:00:47;;;;;;;;;;;;;;;;;;5054845;28;20417;-65
2023/03/27 03:03:04;;;;;;;;;;;;;;;;;;5056178;28;19969;-69
2023/03/27 03:05:30;;;;;;;;;;;;;;;;;;5055819;28;20319;-66
2023/03/27 03:07:56;;;;;;;;;;;;;;;;;;5056329;28;19949;-68
2023/03/27 03:10:23;;;;;;;;;;;;;;;;;;5055732;28;20336;-66
2023/03/27 03:12:49;;;;;;;;;;;;;;;;;;5055687;28;19950;-65
2023/03/27 03:15:17;;;;;;;;;;;;;;;;;;5055860;28;19951;-66
2023/03/27 03:17:43;;;;;;;;;;;;;;;;;;5055227;28;19952;-67
2023/03/27 03:20:09;;;;;;;;;;;;;;;;;;5056117;28;19955;-64
2023/03/27 03:22:36;;;;;;;;;;;;;;;;;;5055375;28;20040;-68
2023/03/27 03:25:02;;;;;;;;;;;;;;;;;;5055679;28;19960;-65
2023/03/27 03:27:28;;;;;;;;;;;;;;;;;;5055390;28;19951;-68
2023/03/27 03:29:55;;;;;;;;;;;;;;;;;;5055456;28;20429;-66
2023/03/27 03:32:21;;;;;;;;;;;;;;;;;;5055571;28;20030;-66
2023/03/27 03:34:47;;;;;;;;;;;;;;;;;;5055498;28;20319;-65
2023/03/27 03:37:13;;;;;;;;;;;;;;;;;;5056042;28;19948;-65
2023/03/27 03:39:39;;;;;;;;;;;;;;;;;;5054969;28;19949;-66
2023/03/27 03:42:05;;;;;;;;;;;;;;;;;;5055438;28;19996;-66
2023/03/27 03:44:33;;;;;;;;;;;;;;;;;;5054993;28;19972;-68
2023/03/27 03:46:59;;;;;;;;;;;;;;;;;;5055574;28;20405;-67
2023/03/27 03:49:25;;;;;;;;;;;;;;;;;;5055264;28;19955;-65
2023/03/27 03:51:51;;;;;;;;;;;;;;;;;;5054924;28;19950;-64
2023/03/27 03:54:18;;;;;;;;;;;;;;;;;;5055119;28;20005;-68
2023/03/27 03:56:44;;;;;;;;;;;;;;;;;;5053319;28;19963;-67
2023/03/27 03:59:13;;;;;;;;;;;;;;;;;;5055039;28;19953;-67
2023/03/27 04:01:39;;;;;;;;;;;;;;;;;;5054993;28;19956;-68
2023/03/27 04:04:07;;;;;;;;;;;;;;;;;;5054611;28;20439;-67
2023/03/27 04:06:36;;;;;;;;;;;;;;;;;;5055136;28;19948;-66
2023/03/27 04:09:02;;;;;;;;;;;;;;;;;;5054827;28;20008;-66
2023/03/27 04:11:28;;;;;;;;;;;;;;;;;;5054315;28;19952;-67
2023/03/27 04:13:54;;;;;;;;;;;;;;;;;;5054822;28;20005;-66
2023/03/27 04:16:20;;;;;;;;;;;;;;;;;;5054466;28;19953;-65
2023/03/27 04:18:49;;;;;;;;;;;;;;;;;;5054689;28;19952;-69
2023/03/27 04:21:15;;;;;;;;;;;;;;;;;;5054243;28;19962;-67
2023/03/27 04:23:41;;;;;;;;;;;;;;;;;;5054778;28;20070;-66
2023/03/27 04:26:06;;;;;;;;;;;;;;;;;;5054480;28;19962;-68
2023/03/27 04:28:33;;;;;;;;;;;;;;;;;;5054440;28;19953;-68
2023/03/27 04:30:58;;;;;;;;;;;;;;;;;;5054141;28;19969;-68
2023/03/27 04:33:25;;;;;;;;;;;;;;;;;;5054126;28;20033;-67
2023/03/27 04:35:51;;;;;;;;;;;;;;;;;;5054081;28;19954;-67
2023/03/27 04:38:18;;;;;;;;;;;;;;;;;;5054093;28;20022;-69
2023/03/27 04:40:45;;;;;;;;;;;;;;;;;;5053590;28;20012;-67
2023/03/27 04:43:10;;;;;;;;;;;;;;;;;;5054180;28;20311;-65
2023/03/27 04:45:37;;;;;;;;;;;;;;;;;;5053945;28;19952;-65
2023/03/27 04:48:03;;;;;;;;;;;;;;;;;;5053947;28;20403;-69
2023/03/27 04:50:29;;;;;;;;;;;;;;;;;;5054143;28;19961;-68
2023/03/27 04:52:58;;;;;;;;;;;;;;;;;;5053848;28;19952;-65
2023/03/27 04:55:25;;;;;;;;;;;;;;;;;;5054050;28;20297;-68
2023/03/27 04:57:51;;;;;;;;;;;;;;;;;;5052547;28;19951;-66
2023/03/27 05:00:22;;;;;;;;;;;;;;;;;;5054017;28;19952;-68
2023/03/27 05:02:48;;;;;;;;;;;;;;;;;;5053881;28;19962;-67
2023/03/27 05:05:15;;;;;;;;;;;;;;;;;;5053969;28;19947;-65
2023/03/27 05:07:42;;;;;;;;;;;;;;;;;;5053705;28;20573;-66
2023/03/27 05:10:08;;;;;;;;;;;;;;;;;;5053642;28;19948;-67
2023/03/27 05:12:33;;;;;;;;;;;;;;;;;;5053936;28;19952;-68
2023/03/27 05:15:02;;;;;;;;;;;;;;;;;;5053557;28;19959;-66
2023/03/27 05:17:28;;;;;;;;;;;;;;;;;;5053226;28;19951;-65
2023/03/27 05:19:55;;;;;;;;;;;;;;;;;;5053838;28;19959;-66
2023/03/27 05:22:21;;;;;;;;;;;;;;;;;;5053696;28;19946;-67
2023/03/27 05:24:47;;;;;;;;;;;;;;;;;;5057895;28;20018;-68
2023/03/27 05:27:14;;;;;;;;;;;;;;;;;;5057633;28;19996;-68
2023/03/27 05:29:40;;;;;;;;;;;;;;;;;;5057460;28;20026;-66
2023/03/27 05:32:06;;;;;;;;;;;;;;;;;;5057778;28;19956;-68
2023/03/27 05:34:33;;;;;;;;;;;;;;;;;;5057840;28;19956;-67
2023/03/27 05:37:04;;;;;;;;;;;;;;;;;;5057376;28;20412;-67
2023/03/27 05:39:30;;;;;;;;;;;;;;;;;;5057225;28;19963;-66
2023/03/27 05:41:56;;;;;;;;;;;;;;;;;;5057662;28;20317;-65
2023/03/27 05:44:22;;;;;;;;;;;;;;;;;;5057245;28;19973;-65
2023/03/27 05:46:48;;;;;;;;;;;;;;;;;;5057560;28;20357;-66
2023/03/27 05:49:14;;;;;;;;;;;;;;;;;;5057801;28;19953;-66
2023/03/27 05:51:40;;;;;;;;;;;;;;;;;;5057216;28;20053;-65
2023/03/27 05:54:06;;;;;;;;;;;;;;;;;;5057101;28;20426;-68
2023/03/27 05:56:32;;;;;;;;;;;;;;;;;;5055846;28;20058;-66
2023/03/27 05:58:57;;;;;;;;;;;;;;;;;;5057046;28;19993;-69
2023/03/27 06:01:24;;;;;;;;;;;;;;;;;;5057247;28;19994;-68
2023/03/27 06:03:54;;;;;;;;;;;;;;;;;;5057127;28;19978;-68
2023/03/27 06:06:20;;;;;;;;;;;;;;;;;;5057158;28;19981;-64
2023/03/27 06:08:46;;;;;;;;;;;;;;;;;;5056854;28;19994;-65
2023/03/27 06:11:12;;;;;;;;;;;;;;;;;;5056824;28;19958;-65
2023/03/27 06:13:38;;;;;;;;;;;;;;;;;;5057062;28;19952;-68
2023/03/27 06:16:04;;;;;;;;;;;;;;;;;;5056747;28;20014;-68
2023/03/27 06:18:30;;;;;;;;;;;;;;;;;;5056716;28;19982;-68
2023/03/27 06:20:56;;;;;;;;;;;;;;;;;;5056857;28;19960;-65
2023/03/27 06:23:22;;;;;;;;;;;;;;;;;;5056834;28;19974;-67
2023/03/27 06:25:49;;;;;;;;;;;;;;;;;;5056868;28;20319;-65
2023/03/27 06:28:15;;;;;;;;;;;;;;;;;;5057053;28;20308;-66
2023/03/27 06:30:41;;;;;;;;;;;;;;;;;;5057261;28;19970;-66
2023/03/27 06:33:07;;;;;;;;;;;;;;;;;;5056437;28;19952;-65
2023/03/27 06:35:33;;;;;;;;;;;;;;;;;;5056851;28;20398;-67
2023/03/27 06:38:01;;;;;;;;;;;;;;;;;;5056586;28;19963;-66
2023/03/27 06:40:27;;;;;;;;;;;;;;;;;;5056422;28;20030;-66
2023/03/27 06:42:53;;;;;;;;;;;;;;;;;;5056167;28;19951;-67
2023/03/27 06:45:19;;;;;;;;;;;;;;;;;;5056470;28;20062;-65
2023/03/27 06:47:45;;;;;;;;;;;;;;;;;;5056441;28;19951;-67
2023/03/27 06:50:11;;;;;;;;;;;;;;;;;;5054495;28;19991;-67
2023/03/27 06:52:37;;;;;;;;;;;;;;;;;;5035878;28;20021;-70
2023/03/27 06:55:02;;;;;;;;;;;;;;;;;;5042168;28;19961;-66
2023/03/27 06:57:28;;;;;;;;;;;;;;;;;;5049023;28;19961;-66
2023/03/27 06:59:55;;;;;;;;;;;;;;;;;;5051916;28;19954;-65
2023/03/27 07:02:21;;;;;;;;;;;;;;;;;;5051181;28;19954;-66
2023/03/27 07:04:47;;;;;;;;;;;;;;;;;;5053803;28;19973;-66
2023/03/27 07:07:13;;;;;;;;;;;;;;;;;;5053987;28;19988;-64
2023/03/27 07:09:38;;;;;;;;;;;;;;;;;;5056313;28;19953;-68
2023/03/27 07:12:05;;;;;;;;;;;;;;;;;;5055676;28;19956;-67
2023/03/27 07:14:30;;;;;;;;;;;;;;;;;;5055936;28;20018;-69
2023/03/27 07:16:56;;;;;;;;;;;;;;;;;;5055909;28;20292;-68
2023/03/27 07:19:22;;;;;;;;;;;;;;;;;;5056156;28;19961;-65
2023/03/27 07:21:48;;;;;;;;;;;;;;;;;;5040421;28;19963;-65
2023/03/27 07:24:14;;;;;;;;;;;;;;;;;;5039745;28;20024;-64
2023/03/27 07:26:40;;;;;;;;;;;;;;;;;;5035420;28;20422;-65
2023/03/27 07:29:09;;;;;;;;;;;;;;;;;;5046938;28;19976;-67
2023/03/27 07:31:35;;;;;;;;;;;;;;;;;;5040163;28;19964;-67
2023/03/27 07:34:01;;;;;;;;;;;;;;;;;;5040003;28;19962;-67
2023/03/27 07:36:27;;;;;;;;;;;;;;;;;;5053196;28;19952;-65
2023/03/27 07:38:53;;;;;;;;;;;;;;;;;;5052930;28;20110;-65
2023/03/27 07:41:19;;;;;;;;;;;;;;;;;;5048956;28;20050;-68
2023/03/27 07:43:45;;;;;;;;;;;;;;;;;;5054573;28;19972;-68
2023/03/27 07:46:11;;;;;;;;;;;;;;;;;;5054687;28;20291;-66
2023/03/27 07:48:37;;;;;;;;;;;;;;;;;;5055034;28;20421;-68
2023/03/27 07:51:03;;;;;;;;;;;;;;;;;;5054999;28;19950;-67
2023/03/27 07:53:29;;;;;;;;;;;;;;;;;;5055167;28;19952;-69
2023/03/27 07:55:57;;;;;;;;;;;;;;;;;;5054972;28;19956;-63
2023/03/27 07:58:23;;;;;;;;;;;;;;;;;;5055065;28;19961;-63
2023/03/27 08:00:51;;;;;;;;;;;;;;;;;;5051889;28;20042;-66
2023/03/27 08:03:17;;;;;;;;;;;;;;;;;;5050289;28;20466;-67
2023/03/27 08:05:43;;;;;;;;;;;;;;;;;;5047659;28;19957;-65
2023/03/27 08:08:09;;;;;;;;;;;;;;;;;;5037265;28;20484;-64
2023/03/27 08:10:36;;;;;;;;;;;;;;;;;;5043600;28;20012;-67
2023/03/27 08:13:02;;;;;;;;;;;;;;;;;;5048625;28;20043;-64
2023/03/27 08:15:28;;;;;;;;;;;;;;;;;;5036932;28;19965;-67
2023/03/27 08:17:55;;;;;;;;;;;;;;;;;;5037346;28;19961;-68
2023/03/27 08:20:22;;;;;;;;;;;;;;;;;;5034730;28;20011;-67
2023/03/27 08:22:48;;;;;;;;;;;;;;;;;;5040711;28;19960;-64
2023/03/27 08:25:13;;;;;;;;;;;;;;;;;;5051741;28;19954;-65
2023/03/27 08:27:39;;;;;;;;;;;;;;;;;;5054670;28;19975;-65
2023/03/27 08:30:05;;;;;;;;;;;;;;;;;;5050828;28;19975;-65
2023/03/27 08:32:31;;;;;;;;;;;;;;;;;;5039262;28;19957;-69
2023/03/27 08:34:57;;;;;;;;;;;;;;;;;;5054163;28;20023;-70
2023/03/27 08:37:23;;;;;;;;;;;;;;;;;;5054161;28;19947;-66
2023/03/27 08:39:49;;;;;;;;;;;;;;;;;;5054428;28;20470;-69
2023/03/27 08:42:15;;;;;;;;;;;;;;;;;;5054406;28;19948;-73
2023/03/27 08:44:41;;;;;;;;;;;;;;;;;;5045997;28;19969;-67
2023/03/27 08:47:07;;;;;;;;;;;;;;;;;;5034765;28;19955;-68
2023/03/27 08:49:33;;;;;;;;;;;;;;;;;;5034275;28;19977;-69
2023/03/27 08:51:59;;;;;;;;;;;;;;;;;;5034223;28;19953;-67
2023/03/27 08:54:25;;;;;;;;;;;;;;;;;;5033933;28;20391;-68
2023/03/27 08:56:51;;;;;;;;;;;;;;;;;;5033484;28;19993;-69
2023/03/27 08:59:17;;;;;;;;;;;;;;;;;;5033576;28;19960;-69
2023/03/27 09:01:44;;;;;;;;;;;;;;;;;;5048740;28;19962;-69
2023/03/27 09:04:11;;;;;;;;;;;;;;;;;;5052390;28;19982;-69
2023/03/27 09:06:38;;;;;;;;;;;;;;;;;;5053686;28;19953;-69
2023/03/27 09:09:05;;;;;;;;;;;;;;;;;;5051344;28;19965;-69
2023/03/27 09:11:32;;;;;;;;;;;;;;;;;;5035347;28;20418;-71
2023/03/27 09:13:58;;;;;;;;;;;;;;;;;;5033670;28;20324;-67
2023/03/27 09:16:23;;;;;;;;;;;;;;;;;;5033662;28;19961;-70
2023/03/27 09:18:50;;;;;;;;;;;;;;;;;;5042610;28;20006;-69
2023/03/27 09:21:16;;;;;;;;;;;;;;;;;;5052091;28;19966;-71
2023/03/27 09:23:42;;;;;;;;;;;;;;;;;;5047307;28;20067;-69
2023/03/27 09:26:08;;;;;;;;;;;;;;;;;;5040920;28;19955;-70
2023/03/27 09:28:34;;;;;;;;;;;;;;;;;;5046593;28;19964;-72
2023/03/27 09:31:02;;;;;;;;;;;;;;;;;;5038317;28;20051;-70
2023/03/27 09:33:28;;;;;;;;;;;;;;;;;;5033334;28;19959;-71
2023/03/27 09:35:54;;;;;;;;;;;;;;;;;;5045643;28;19959;-69
2023/03/27 09:38:20;;;;;;;;;;;;;;;;;;5044693;28;19960;-66
2023/03/27 09:40:47;;;;;;;;;;;;;;;;;;5033271;28;20364;-70
2023/03/27 09:43:13;;;;;;;;;;;;;;;;;;5041705;28;19975;-70
2023/03/27 09:45:40;;;;;;;;;;;;;;;;;;5042325;28;19963;-66
2023/03/27 09:48:06;;;;;;;;;;;;;;;;;;5044573;28;20018;-67
2023/03/27 09:50:32;;;;;;;;;;;;;;;;;;5037192;28;19961;-64
2023/03/27 09:52:58;;;;;;;;;;;;;;;;;;5044013;28;20469;-71
2023/03/27 09:55:24;;;;;;;;;;;;;;;;;;5044557;28;19967;-71
2023/03/27 09:57:50;;;;;;;;;;;;;;;;;;5040919;28;19961;-69
2023/03/27 10:00:15;;;;;;;;;;;;;;;;;;5041671;28;20006;-70
2023/03/27 10:02:41;;;;;;;;;;;;;;;;;;5040108;28;19951;-71
2023/03/27 10:05:10;;;;;;;;;;;;;;;;;;5052062;28;19980;-68
2023/03/27 10:07:38;;;;;;;;;;;;;;;;;;5048624;28;19959;-67
2023/03/27 10:10:05;;;;;;;;;;;;;;;;;;5047439;28;19988;-68
2023/03/27 10:12:33;;;;;;;;;;;;;;;;;;5051565;28;20480;-70
2023/03/27 10:14:59;;;;;;;;;;;;;;;;;;5049552;28;20051;-69
2023/03/27 10:17:25;;;;;;;;;;;;;;;;;;5036459;28;20011;-71
2023/03/27 10:19:51;;;;;;;;;;;;;;;;;;5040378;28;19960;-69
2023/03/27 10:22:17;;;;;;;;;;;;;;;;;;5052329;28;19956;-68
2023/03/27 10:24:43;;;;;;;;;;;;;;;;;;5054199;28;19973;-68
2023/03/27 10:27:11;;;;;;;;;;;;;;;;;;5041939;28;19960;-70
2023/03/27 10:29:36;;;;;;;;;;;;;;;;;;5046455;28;20067;-68
2023/03/27 10:32:02;;;;;;;;;;;;;;;;;;5037077;28;20386;-69
2023/03/27 10:34:29;;;;;;;;;;;;;;;;;;5035428;28;19953;-68
2023/03/27 10:36:55;;;;;;;;;;;;;;;;;;5034520;28;20452;-68
2023/03/27 10:39:21;;;;;;;;;;;;;;;;;;5034500;28;20435;-69
2023/03/27 10:41:46;;;;;;;;;;;;;;;;;;5034858;28;20067;-70
2023/03/27 10:44:12;;;;;;;;;;;;;;;;;;5035122;28;20024;-69
2023/03/27 10:46:38;;;;;;;;;;;;;;;;;;5034878;28;20036;-69
2023/03/27 10:49:04;;;;;;;;;;;;;;;;;;5035394;28;19951;-70
2023/03/27 10:51:31;;;;;;;;;;;;;;;;;;5036148;28;20079;-69
2023/03/27 10:53:57;;;;;;;;;;;;;;;;;;5036069;28;20408;-68
2023/03/27 10:56:23;;;;;;;;;;;;;;;;;;5036362;28;19955;-69
2023/03/27 10:58:49;;;;;;;;;;;;;;;;;;5036333;28;19951;-67
2023/03/27 11:01:15;;;;;;;;;;;;;;;;;;5036237;28;20314;-67
2023/03/27 11:03:41;;;;;;;;;;;;;;;;;;5035929;28;20329;-69
2023/03/27 11:06:07;;;;;;;;;;;;;;;;;;5036218;28;20296;-67
2023/03/27 11:08:33;;;;;;;;;;;;;;;;;;5036439;28;20010;-68
2023/03/27 11:10:59;;;;;;;;;;;;;;;;;;5035869;28;19954;-68
2023/03/27 11:13:26;;;;;;;;;;;;;;;;;;5036363;28;20039;-68
2023/03/27 11:15:53;;;;;;;;;;;;;;;;;;5035324;28;19956;-67
2023/03/27 11:18:18;;;;;;;;;;;;;;;;;;5035879;28;20002;-71
2023/03/27 11:20:44;;;;;;;;;;;;;;;;;;5035124;28;20027;-68
2023/03/27 11:23:10;;;;;;;;;;;;;;;;;;5035605;28;20057;-67
2023/03/27 11:25:36;;;;;;;;;;;;;;;;;;5035528;28;19957;-68
2023/03/27 11:28:02;;;;;;;;;;;;;;;;;;5035706;28;19957;-69
2023/03/27 11:30:28;;;;;;;;;;;;;;;;;;5035514;28;20340;-68
2023/03/27 11:32:55;;;;;;;;;;;;;;;;;;5036273;28;19948;-67
2023/03/27 11:35:22;;;;;;;;;;;;;;;;;;5035392;28;19951;-68
2023/03/27 11:37:48;;;;;;;;;;;;;;;;;;5035741;28;19986;-69
2023/03/27 11:40:13;;;;;;;;;;;;;;;;;;5035038;28;20010;-70
2023/03/27 11:42:41;;;;;;;;;;;;;;;;;;5035212;28;19957;-70
2023/03/27 11:45:08;;;;;;;;;;;;;;;;;;5035431;28;20039;-70
2023/03/27 11:47:34;;;;;;;;;;;;;;;;;;5035176;28;20296;-67
2023/03/27 11:50:00;;;;;;;;;;;;;;;;;;5035647;28;19951;-69
2023/03/27 11:52:26;;;;;;;;;;;;;;;;;;5035028;28;19944;-68
2023/03/27 11:54:52;;;;;;;;;;;;;;;;;;5035273;28;20043;-68
2023/03/27 11:57:18;;;;;;;;;;;;;;;;;;5034987;28;19960;-69
2023/03/27 11:59:46;;;;;;;;;;;;;;;;;;5034821;28;19962;-69
2023/03/27 12:02:12;;;;;;;;;;;;;;;;;;5033604;28;20004;-69
2023/03/27 12:04:38;;;;;;;;;;;;;;;;;;5035005;28;20048;-67
2023/03/27 12:07:05;;;;;;;;;;;;;;;;;;5034699;28;19982;-67
2023/03/27 12:09:31;;;;;;;;;;;;;;;;;;5034928;28;20048;-70
2023/03/27 12:11:57;;;;;;;;;;;;;;;;;;5034693;28;20058;-67
2023/03/27 12:14:23;;;;;;;;;;;;;;;;;;5035193;28;20394;-70
2023/03/27 12:16:49;;;;;;;;;;;;;;;;;;5033106;28;20054;-69
2023/03/27 12:19:16;;;;;;;;;;;;;;;;;;5034567;28;19946;-67
2023/03/27 12:21:43;;;;;;;;;;;;;;;;;;5034736;28;19952;-70
2023/03/27 12:24:09;;;;;;;;;;;;;;;;;;5048221;28;20321;-69
2023/03/27 12:26:36;;;;;;;;;;;;;;;;;;5051919;28;19965;-70
2023/03/27 12:29:02;;;;;;;;;;;;;;;;;;5051933;28;19985;-69
2023/03/27 12:31:28;;;;;;;;;;;;;;;;;;5051453;28;20399;-68
2023/03/27 12:33:54;;;;;;;;;;;;;;;;;;5034025;28;19958;-69
2023/03/27 12:36:21;;;;;;;;;;;;;;;;;;5034270;28;19974;-69
2023/03/27 12:38:47;;;;;;;;;;;;;;;;;;5034441;28;19997;-69
2023/03/27 12:41:13;;;;;;;;;;;;;;;;;;5033887;28;20009;-67
2023/03/27 12:43:40;;;;;;;;;;;;;;;;;;5034584;28;20325;-67
2023/03/27 12:46:05;;;;;;;;;;;;;;;;;;5034065;28;19994;-69
2023/03/27 12:48:31;;;;;;;;;;;;;;;;;;5049039;28;20375;-67
2023/03/27 12:50:57;;;;;;;;;;;;;;;;;;5042925;28;20048;-69
2023/03/27 12:53:23;;;;;;;;;;;;;;;;;;5034053;28;20042;-69
2023/03/27 12:55:49;;;;;;;;;;;;;;;;;;5040348;28;19965;-69
2023/03/27 12:58:15;;;;;;;;;;;;;;;;;;5051720;28;20493;-68
2023/03/27 13:00:42;;;;;;;;;;;;;;;;;;5054308;28;19953;-69
2023/03/27 13:03:08;;;;;;;;;;;;;;;;;;5053663;28;19953;-68
2023/03/27 13:05:34;;;;;;;;;;;;;;;;;;5053659;28;19963;-68
2023/03/27 13:08:00;;;;;;;;;;;;;;;;;;5054067;28;19976;-68
2023/03/27 13:10:26;;;;;;;;;;;;;;;;;;5034864;28;19960;-68
2023/03/27 13:12:52;;;;;;;;;;;;;;;;;;5033987;28;20002;-68
2023/03/27 13:15:18;;;;;;;;;;;;;;;;;;5033754;28;19994;-68
2023/03/27 13:17:43;;;;;;;;;;;;;;;;;;5034008;28;19954;-68
2023/03/27 13:20:09;;;;;;;;;;;;;;;;;;5033679;28;19953;-67
2023/03/27 13:22:35;;;;;;;;;;;;;;;;;;5033215;28;19964;-68
2023/03/27 13:25:01;;;;;;;;;;;;;;;;;;5044277;28;20082;-67
2023/03/27 13:27:27;;;;;;;;;;;;;;;;;;5050856;28;19971;-68
2023/03/27 13:29:53;;;;;;;;;;;;;;;;;;5048746;28;19973;-69
2023/03/27 13:32:19;;;;;;;;;;;;;;;;;;5052086;28;19987;-70
2023/03/27 13:34:45;;;;;;;;;;;;;;;;;;5053749;28;20312;-69
2023/03/27 13:37:12;;;;;;;;;;;;;;;;;;5053741;28;19946;-68
2023/03/27 13:39:39;;;;;;;;;;;;;;;;;;5033054;28;20059;-71
2023/03/27 13:42:05;;;;;;;;;;;;;;;;;;5033674;28;19948;-71
2023/03/27 13:44:32;;;;;;;;;;;;;;;;;;5035447;28;20022;-71
2023/03/27 13:46:58;;;;;;;;;;;;;;;;;;5037494;28;19952;-69
2023/03/27 13:49:24;;;;;;;;;;;;;;;;;;5051645;28;19954;-68
2023/03/27 13:54:35;;;;;;;;;;;;;;;;;;5037108;28;19961;-68
2023/03/27 13:57:01;;;;;;;;;;;;;;;;;;5036915;28;20485;-73
2023/03/27 13:59:26;;;;;;;;;;;;;;;;;;5042009;28;20042;-70
2023/03/27 14:01:52;;;;;;;;;;;;;;;;;;5057368;28;20013;-72
2023/03/27 14:04:18;;;;;;;;;;;;;;;;;;5055461;28;19971;-72
2023/03/27 14:06:44;;;;;;;;;;;;;;;;;;5056505;28;20485;-71
2023/03/27 14:09:10;;;;;;;;;;;;;;;;;;5036828;28;19956;-70
2023/03/27 14:11:36;;;;;;;;;;;;;;;;;;5054222;28;19960;-74
2023/03/27 14:14:02;;;;;;;;;;;;;;;;;;5055206;28;19959;-71
2023/03/27 14:16:28;;;;;;;;;;;;;;;;;;5049997;28;19954;-70
2023/03/27 14:18:54;;;;;;;;;;;;;;;;;;5056769;28;19995;-68
2023/03/27 14:21:22;;;;;;;;;;;;;;;;;;5057000;28;20040;-68
2023/03/27 14:23:48;;;;;;;;;;;;;;;;;;5051403;28;20015;-68
2023/03/27 14:26:16;;;;;;;;;;;;;;;;;;5052745;28;19960;-72
2023/03/27 14:28:42;;;;;;;;;;;;;;;;;;5036817;28;20067;-68
2023/03/27 14:31:13;;;;;;;;;;;;;;;;;;5051469;28;20044;-71
2023/03/27 14:33:41;;;;;;;;;;;;;;;;;;5056830;28;20010;-70
2023/03/27 14:36:07;;;;;;;;;;;;;;;;;;5050789;28;20078;-72
2023/03/27 14:38:33;;;;;;;;;;;;;;;;;;5052525;28;19953;-70
2023/03/27 14:40:59;;;;;;;;;;;;;;;;;;5054004;28;19983;-68
2023/03/27 14:43:25;;;;;;;;;;;;;;;;;;5041730;28;20316;-68
2023/03/27 14:45:51;;;;;;;;;;;;;;;;;;5035975;28;19975;-67
2023/03/27 14:48:18;;;;;;;;;;;;;;;;;;5055061;28;19959;-70
2023/03/27 14:50:45;;;;;;;;;;;;;;;;;;5056449;28;19952;-68
2023/03/27 14:53:11;;;;;;;;;;;;;;;;;;5040632;28;20324;-68
2023/03/27 14:55:37;;;;;;;;;;;;;;;;;;5053146;28;20450;-68
2023/03/27 14:58:07;;;;;;;;;;;;;;;;;;5055150;28;20338;-68
2023/03/27 15:00:33;;;;;;;;;;;;;;;;;;5055196;28;19956;-68
2023/03/27 15:03:00;;;;;;;;;;;;;;;;;;5055945;28;19959;-68
2023/03/27 15:05:26;;;;;;;;;;;;;;;;;;5055807;28;19950;-68
2023/03/27 15:07:54;;;;;;;;;;;;;;;;;;5055825;28;19951;-68
2023/03/27 15:10:21;;;;;;;;;;;;;;;;;;5056020;28;20301;-69
2023/03/27 15:12:47;;;;;;;;;;;;;;;;;;5055924;28;20059;-68
2023/03/27 15:15:13;;;;;;;;;;;;;;;;;;5055975;28;19996;-68
2023/03/27 15:17:39;;;;;;;;;;;;;;;;;;5055661;28;19958;-68
2023/03/27 15:20:14;;;;;;;;;;;;;;;;;;5056098;28;19945;-69
2023/03/27 15:22:40;;;;;;;;;;;;;;;;;;5055845;28;19995;-69
2023/03/27 15:25:05;;;;;;;;;;;;;;;;;;5055756;28;20425;-68
2023/03/27 15:27:31;;;;;;;;;;;;;;;;;;5055412;28;20004;-69
2023/03/27 15:29:57;;;;;;;;;;;;;;;;;;5055378;28;19961;-69
2023/03/27 15:32:23;;;;;;;;;;;;;;;;;;5055875;28;19950;-69
2023/03/27 15:34:49;;;;;;;;;;;;;;;;;;5055339;28;19946;-68
2023/03/27 15:37:15;;;;;;;;;;;;;;;;;;5055516;28;20296;-68
2023/03/27 15:39:42;;;;;;;;;;;;;;;;;;5055022;28;19958;-68
2023/03/27 15:42:08;;;;;;;;;;;;;;;;;;5054880;28;20436;-68
2023/03/27 15:44:34;;;;;;;;;;;;;;;;;;5055514;28;19972;-68
2023/03/27 15:46:59;;;;;;;;;;;;;;;;;;5055088;28;19982;-68
2023/03/27 15:49:26;;;;;;;;;;;;;;;;;;5055327;28;19952;-68
2023/03/27 15:51:52;;;;;;;;;;;;;;;;;;5055230;28;20003;-69
2023/03/27 15:54:18;;;;;;;;;;;;;;;;;;5055249;28;19951;-68
2023/03/27 15:56:44;;;;;;;;;;;;;;;;;;5054846;28;19954;-68
2023/03/27 15:59:10;;;;;;;;;;;;;;;;;;5055414;28;19950;-68
2023/03/27 16:01:36;;;;;;;;;;;;;;;;;;5054789;28;19956;-68
2023/03/27 16:04:02;;;;;;;;;;;;;;;;;;5054677;28;19972;-68
2023/03/27 16:06:29;;;;;;;;;;;;;;;;;;5054574;28;20386;-68
2023/03/27 16:08:55;;;;;;;;;;;;;;;;;;5054667;28;20009;-68
2023/03/27 16:11:21;;;;;;;;;;;;;;;;;;5054631;28;19947;-69
2023/03/27 16:13:47;;;;;;;;;;;;;;;;;;5054608;28;19953;-68
2023/03/27 16:16:13;;;;;;;;;;;;;;;;;;5054557;28;19959;-68
2023/03/27 16:18:39;;;;;;;;;;;;;;;;;;5054829;28;19952;-68
2023/03/27 16:21:05;;;;;;;;;;;;;;;;;;5054742;28;19995;-68
2023/03/27 16:23:32;;;;;;;;;;;;;;;;;;5054606;28;20375;-68
2023/03/27 16:25:58;;;;;;;;;;;;;;;;;;5052854;28;20415;-68
2023/03/27 16:28:28;;;;;;;;;;;;;;;;;;5054230;28;19953;-68
2023/03/27 16:30:54;;;;;;;;;;;;;;;;;;5052975;28;19957;-68
2023/03/27 16:33:21;;;;;;;;;;;;;;;;;;5054551;28;19980;-68
2023/03/27 16:35:47;;;;;;;;;;;;;;;;;;5054565;28;19998;-69
2023/03/27 16:38:13;;;;;;;;;;;;;;;;;;5054415;28;19957;-69
2023/03/27 16:40:39;;;;;;;;;;;;;;;;;;5054188;28;20053;-69
2023/03/27 16:43:05;;;;;;;;;;;;;;;;;;5054363;28;19963;-68